sensor_id;sensor_type;location;lat;lon;timestamp;P1;durP1;ratioP1;P2;durP2;ratioP2
75820;SDS011;64454;51.984;9.838;2022-11-15T00:02:24;7.50;;;6.00;;
75820;SDS011;64454;51.984;9.838;2022-11-15T00:04:54;6.80;;;5.43;;
75820;SDS011;64454;51.984;9.838;2022-11-15T00:07:21;7.38;;;5.28;;
75820;SDS011;64454;51.984;9.838;2022-11-15T00:09:47;6.55;;;4.80;;
75820;SDS011;64454;51.984;9.838;2022-11-15T00:12:14;7.88;;;4.40;;
75820;SDS011;64454;51.984;9.838;2022-11-15T00:14:41;7.00;;;5.15;;
75820;SDS011;64454;51.984;9.838;2022-11-15T00:17:08;6.97;;;5.18;;
75820;SDS011;64454;51.984;9.838;2022-11-15T00:19:35;6.43;;;5.20;;
75820;SDS011;64454;51.984;9.838;2022-11-15T00:22:03;7.50;;;5.47;;
75820;SDS011;64454;51.984;9.838;2022-11-15T00:24:30;6.65;;;5.40;;
75820;SDS011;64454;51.984;9.838;2022-11-15T00:26:57;6.85;;;5.80;;
75820;SDS011;64454;51.984;9.838;2022-11-15T00:29:24;8.32;;;5.00;;
75820;SDS011;64454;51.984;9.838;2022-11-15T00:31:51;7.00;;;5.40;;
75820;SDS011;64454;51.984;9.838;2022-11-15T00:34:18;7.13;;;5.88;;
75820;SDS011;64454;51.984;9.838;2022-11-15T00:36:45;7.57;;;5.25;;
75820;SDS011;64454;51.984;9.838;2022-11-15T00:39:14;9.50;;;6.20;;
75820;SDS011;64454;51.984;9.838;2022-11-15T00:41:40;7.30;;;6.00;;
75820;SDS011;64454;51.984;9.838;2022-11-15T00:44:07;6.78;;;5.30;;
75820;SDS011;64454;51.984;9.838;2022-11-15T00:46:34;7.40;;;5.30;;
75820;SDS011;64454;51.984;9.838;2022-11-15T00:49:01;6.80;;;5.30;;
75820;SDS011;64454;51.984;9.838;2022-11-15T00:51:28;8.27;;;4.80;;
75820;SDS011;64454;51.984;9.838;2022-11-15T00:53:56;7.72;;;5.47;;
75820;SDS011;64454;51.984;9.838;2022-11-15T00:56:24;9.23;;;5.35;;
75820;SDS011;64454;51.984;9.838;2022-11-15T00:58:51;7.93;;;5.82;;
75820;SDS011;64454;51.984;9.838;2022-11-15T01:01:19;7.47;;;6.00;;
75820;SDS011;64454;51.984;9.838;2022-11-15T01:03:46;7.45;;;5.57;;
75820;SDS011;64454;51.984;9.838;2022-11-15T01:06:13;8.50;;;6.10;;
75820;SDS011;64454;51.984;9.838;2022-11-15T01:08:39;8.48;;;5.88;;
75820;SDS011;64454;51.984;9.838;2022-11-15T01:11:07;6.32;;;5.47;;
75820;SDS011;64454;51.984;9.838;2022-11-15T01:13:39;6.82;;;5.40;;
75820;SDS011;64454;51.984;9.838;2022-11-15T01:16:07;7.50;;;5.18;;
75820;SDS011;64454;51.984;9.838;2022-11-15T01:18:36;7.13;;;5.07;;
75820;SDS011;64454;51.984;9.838;2022-11-15T01:21:07;6.57;;;5.22;;
75820;SDS011;64454;51.984;9.838;2022-11-15T01:23:36;7.85;;;5.15;;
75820;SDS011;64454;51.984;9.838;2022-11-15T01:26:04;6.20;;;5.05;;
75820;SDS011;64454;51.984;9.838;2022-11-15T01:28:35;6.95;;;6.25;;
75820;SDS011;64454;51.984;9.838;2022-11-15T01:31:07;7.37;;;5.30;;
75820;SDS011;64454;51.984;9.838;2022-11-15T01:33:39;7.07;;;5.45;;
75820;SDS011;64454;51.984;9.838;2022-11-15T01:36:06;6.50;;;5.50;;
75820;SDS011;64454;51.984;9.838;2022-11-15T01:38:38;6.95;;;5.15;;
75820;SDS011;64454;51.984;9.838;2022-11-15T01:41:04;6.35;;;4.90;;
75820;SDS011;64454;51.984;9.838;2022-11-15T01:43:32;6.68;;;5.43;;
75820;SDS011;64454;51.984;9.838;2022-11-15T01:46:04;7.18;;;5.68;;
75820;SDS011;64454;51.984;9.838;2022-11-15T01:48:48;7.80;;;5.22;;
75820;SDS011;64454;51.984;9.838;2022-11-15T01:51:18;7.32;;;5.15;;
75820;SDS011;64454;51.984;9.838;2022-11-15T01:53:50;5.28;;;4.78;;
75820;SDS011;64454;51.984;9.838;2022-11-15T01:56:23;8.80;;;5.03;;
75820;SDS011;64454;51.984;9.838;2022-11-15T01:58:55;7.38;;;4.82;;
75820;SDS011;64454;51.984;9.838;2022-11-15T02:01:28;6.22;;;4.95;;
75820;SDS011;64454;51.984;9.838;2022-11-15T02:03:58;8.32;;;5.10;;
75820;SDS011;64454;51.984;9.838;2022-11-15T02:06:30;6.33;;;4.50;;
75820;SDS011;64454;51.984;9.838;2022-11-15T02:08:57;6.57;;;4.95;;
75820;SDS011;64454;51.984;9.838;2022-11-15T02:11:26;6.28;;;4.57;;
75820;SDS011;64454;51.984;9.838;2022-11-15T02:13:54;6.95;;;5.25;;
75820;SDS011;64454;51.984;9.838;2022-11-15T02:16:25;5.60;;;3.88;;
75820;SDS011;64454;51.984;9.838;2022-11-15T02:19:08;8.10;;;4.75;;
75820;SDS011;64454;51.984;9.838;2022-11-15T02:22:02;8.52;;;5.03;;
75820;SDS011;64454;51.984;9.838;2022-11-15T02:24:55;6.93;;;5.15;;
75820;SDS011;64454;51.984;9.838;2022-11-15T02:27:51;5.20;;;4.60;;
75820;SDS011;64454;51.984;9.838;2022-11-15T02:30:43;6.05;;;4.90;;
75820;SDS011;64454;51.984;9.838;2022-11-15T02:33:21;6.28;;;4.90;;
75820;SDS011;64454;51.984;9.838;2022-11-15T02:36:02;6.28;;;4.97;;
75820;SDS011;64454;51.984;9.838;2022-11-15T02:38:40;4.70;;;4.13;;
75820;SDS011;64454;51.984;9.838;2022-11-15T02:41:22;6.35;;;4.88;;
75820;SDS011;64454;51.984;9.838;2022-11-15T02:43:59;5.78;;;4.90;;
75820;SDS011;64454;51.984;9.838;2022-11-15T02:46:34;8.18;;;4.38;;
75820;SDS011;64454;51.984;9.838;2022-11-15T02:49:24;7.90;;;4.57;;
75820;SDS011;64454;51.984;9.838;2022-11-15T02:51:54;6.63;;;4.20;;
75820;SDS011;64454;51.984;9.838;2022-11-15T02:54:23;6.15;;;4.38;;
75820;SDS011;64454;51.984;9.838;2022-11-15T02:56:56;6.22;;;4.20;;
75820;SDS011;64454;51.984;9.838;2022-11-15T03:02:44;7.85;;;4.50;;
75820;SDS011;64454;51.984;9.838;2022-11-15T03:05:30;8.68;;;4.55;;
75820;SDS011;64454;51.984;9.838;2022-11-15T03:08:05;5.75;;;4.95;;
75820;SDS011;64454;51.984;9.838;2022-11-15T03:10:41;4.47;;;3.92;;
75820;SDS011;64454;51.984;9.838;2022-11-15T03:13:19;6.28;;;3.90;;
75820;SDS011;64454;51.984;9.838;2022-11-15T03:15:55;6.00;;;4.00;;
75820;SDS011;64454;51.984;9.838;2022-11-15T03:18:32;7.63;;;4.63;;
75820;SDS011;64454;51.984;9.838;2022-11-15T03:21:04;5.10;;;4.00;;
75820;SDS011;64454;51.984;9.838;2022-11-15T03:23:36;5.80;;;4.00;;
75820;SDS011;64454;51.984;9.838;2022-11-15T03:26:07;6.30;;;4.07;;
75820;SDS011;64454;51.984;9.838;2022-11-15T03:28:38;6.28;;;4.20;;
75820;SDS011;64454;51.984;9.838;2022-11-15T03:31:13;5.22;;;3.72;;
75820;SDS011;64454;51.984;9.838;2022-11-15T03:34:03;5.82;;;4.03;;
75820;SDS011;64454;51.984;9.838;2022-11-15T03:36:37;6.18;;;4.22;;
75820;SDS011;64454;51.984;9.838;2022-11-15T03:39:06;6.00;;;4.00;;
75820;SDS011;64454;51.984;9.838;2022-11-15T03:41:35;7.00;;;3.50;;
75820;SDS011;64454;51.984;9.838;2022-11-15T03:44:11;6.30;;;4.13;;
75820;SDS011;64454;51.984;9.838;2022-11-15T03:46:51;6.55;;;3.97;;
75820;SDS011;64454;51.984;9.838;2022-11-15T03:49:30;6.97;;;4.25;;
75820;SDS011;64454;51.984;9.838;2022-11-15T03:52:01;4.90;;;3.78;;
75820;SDS011;64454;51.984;9.838;2022-11-15T03:54:30;5.00;;;3.78;;
75820;SDS011;64454;51.984;9.838;2022-11-15T03:56:57;4.13;;;3.47;;
75820;SDS011;64454;51.984;9.838;2022-11-15T03:59:24;5.72;;;3.45;;
75820;SDS011;64454;51.984;9.838;2022-11-15T04:01:54;4.47;;;3.80;;
75820;SDS011;64454;51.984;9.838;2022-11-15T04:04:21;5.70;;;3.83;;
75820;SDS011;64454;51.984;9.838;2022-11-15T04:06:49;4.38;;;3.33;;
75820;SDS011;64454;51.984;9.838;2022-11-15T04:09:16;7.10;;;3.88;;
75820;SDS011;64454;51.984;9.838;2022-11-15T04:11:43;5.57;;;3.70;;
75820;SDS011;64454;51.984;9.838;2022-11-15T04:14:10;5.03;;;3.40;;
75820;SDS011;64454;51.984;9.838;2022-11-15T04:16:37;4.93;;;3.85;;
75820;SDS011;64454;51.984;9.838;2022-11-15T04:19:04;7.00;;;3.65;;
75820;SDS011;64454;51.984;9.838;2022-11-15T04:21:49;5.20;;;3.83;;
75820;SDS011;64454;51.984;9.838;2022-11-15T04:24:34;6.05;;;3.70;;
75820;SDS011;64454;51.984;9.838;2022-11-15T04:27:01;3.73;;;3.30;;
75820;SDS011;64454;51.984;9.838;2022-11-15T04:29:28;5.83;;;4.10;;
75820;SDS011;64454;51.984;9.838;2022-11-15T04:32:01;5.43;;;3.60;;
75820;SDS011;64454;51.984;9.838;2022-11-15T04:34:29;4.97;;;3.70;;
75820;SDS011;64454;51.984;9.838;2022-11-15T04:36:58;4.78;;;3.33;;
75820;SDS011;64454;51.984;9.838;2022-11-15T04:39:41;4.93;;;3.70;;
75820;SDS011;64454;51.984;9.838;2022-11-15T04:42:09;4.82;;;3.60;;
75820;SDS011;64454;51.984;9.838;2022-11-15T04:44:36;5.93;;;3.67;;
75820;SDS011;64454;51.984;9.838;2022-11-15T04:47:04;5.05;;;3.15;;
75820;SDS011;64454;51.984;9.838;2022-11-15T04:49:31;4.40;;;3.40;;
75820;SDS011;64454;51.984;9.838;2022-11-15T04:51:59;4.73;;;3.20;;
75820;SDS011;64454;51.984;9.838;2022-11-15T04:54:26;5.45;;;3.70;;
75820;SDS011;64454;51.984;9.838;2022-11-15T04:56:53;5.65;;;4.00;;
75820;SDS011;64454;51.984;9.838;2022-11-15T04:59:20;5.18;;;3.97;;
75820;SDS011;64454;51.984;9.838;2022-11-15T05:01:47;6.28;;;4.25;;
75820;SDS011;64454;51.984;9.838;2022-11-15T05:04:14;5.57;;;3.75;;
75820;SDS011;64454;51.984;9.838;2022-11-15T05:06:47;5.90;;;3.50;;
75820;SDS011;64454;51.984;9.838;2022-11-15T05:09:17;5.43;;;3.70;;
75820;SDS011;64454;51.984;9.838;2022-11-15T05:11:45;3.97;;;2.92;;
75820;SDS011;64454;51.984;9.838;2022-11-15T05:14:13;4.85;;;3.70;;
75820;SDS011;64454;51.984;9.838;2022-11-15T05:16:40;5.72;;;3.67;;
75820;SDS011;64454;51.984;9.838;2022-11-15T05:19:07;5.70;;;3.67;;
75820;SDS011;64454;51.984;9.838;2022-11-15T05:21:35;5.10;;;3.20;;
75820;SDS011;64454;51.984;9.838;2022-11-15T05:24:03;4.50;;;3.30;;
75820;SDS011;64454;51.984;9.838;2022-11-15T05:26:32;3.35;;;3.05;;
75820;SDS011;64454;51.984;9.838;2022-11-15T05:28:59;4.75;;;3.42;;
75820;SDS011;64454;51.984;9.838;2022-11-15T05:31:26;7.28;;;4.68;;
75820;SDS011;64454;51.984;9.838;2022-11-15T05:33:53;7.97;;;5.00;;
75820;SDS011;64454;51.984;9.838;2022-11-15T05:36:25;6.93;;;4.10;;
75820;SDS011;64454;51.984;9.838;2022-11-15T05:38:59;5.00;;;4.50;;
75820;SDS011;64454;51.984;9.838;2022-11-15T05:41:29;6.40;;;4.72;;
75820;SDS011;64454;51.984;9.838;2022-11-15T05:44:01;8.02;;;5.97;;
75820;SDS011;64454;51.984;9.838;2022-11-15T05:46:31;6.03;;;4.50;;
75820;SDS011;64454;51.984;9.838;2022-11-15T05:49:00;7.20;;;4.90;;
75820;SDS011;64454;51.984;9.838;2022-11-15T05:51:27;9.88;;;6.13;;
75820;SDS011;64454;51.984;9.838;2022-11-15T05:53:55;6.70;;;4.55;;
75820;SDS011;64454;51.984;9.838;2022-11-15T05:56:24;6.75;;;4.53;;
75820;SDS011;64454;51.984;9.838;2022-11-15T05:58:53;5.50;;;3.90;;
75820;SDS011;64454;51.984;9.838;2022-11-15T06:01:24;4.67;;;3.83;;
75820;SDS011;64454;51.984;9.838;2022-11-15T06:03:52;5.85;;;4.35;;
75820;SDS011;64454;51.984;9.838;2022-11-15T06:06:19;7.93;;;5.07;;
75820;SDS011;64454;51.984;9.838;2022-11-15T06:08:46;7.43;;;5.68;;
75820;SDS011;64454;51.984;9.838;2022-11-15T06:11:13;5.73;;;4.73;;
75820;SDS011;64454;51.984;9.838;2022-11-15T06:13:40;5.40;;;4.22;;
75820;SDS011;64454;51.984;9.838;2022-11-15T06:16:09;29.85;;;13.45;;
75820;SDS011;64454;51.984;9.838;2022-11-15T06:18:36;15.30;;;8.77;;
75820;SDS011;64454;51.984;9.838;2022-11-15T06:21:03;10.85;;;6.18;;
75820;SDS011;64454;51.984;9.838;2022-11-15T06:23:31;11.30;;;6.63;;
75820;SDS011;64454;51.984;9.838;2022-11-15T06:26:01;6.13;;;4.22;;
75820;SDS011;64454;51.984;9.838;2022-11-15T06:28:29;6.70;;;5.18;;
75820;SDS011;64454;51.984;9.838;2022-11-15T06:31:01;12.80;;;8.70;;
75820;SDS011;64454;51.984;9.838;2022-11-15T06:33:30;4.00;;;3.60;;
75820;SDS011;64454;51.984;9.838;2022-11-15T06:35:59;6.45;;;4.05;;
75820;SDS011;64454;51.984;9.838;2022-11-15T06:38:29;4.85;;;4.03;;
75820;SDS011;64454;51.984;9.838;2022-11-15T06:41:00;5.95;;;3.65;;
75820;SDS011;64454;51.984;9.838;2022-11-15T06:43:28;5.90;;;4.32;;
75820;SDS011;64454;51.984;9.838;2022-11-15T06:45:55;4.68;;;4.05;;
75820;SDS011;64454;51.984;9.838;2022-11-15T06:48:24;5.25;;;4.25;;
75820;SDS011;64454;51.984;9.838;2022-11-15T06:50:52;6.03;;;4.45;;
75820;SDS011;64454;51.984;9.838;2022-11-15T06:53:20;4.90;;;3.60;;
75820;SDS011;64454;51.984;9.838;2022-11-15T06:55:47;4.57;;;3.55;;
75820;SDS011;64454;51.984;9.838;2022-11-15T06:58:14;6.20;;;3.63;;
75820;SDS011;64454;51.984;9.838;2022-11-15T07:00:41;5.07;;;3.65;;
75820;SDS011;64454;51.984;9.838;2022-11-15T07:03:09;6.20;;;3.60;;
75820;SDS011;64454;51.984;9.838;2022-11-15T07:05:36;6.68;;;4.30;;
75820;SDS011;64454;51.984;9.838;2022-11-15T07:08:05;5.32;;;4.25;;
75820;SDS011;64454;51.984;9.838;2022-11-15T07:10:32;4.72;;;3.40;;
75820;SDS011;64454;51.984;9.838;2022-11-15T07:12:58;5.07;;;3.78;;
75820;SDS011;64454;51.984;9.838;2022-11-15T07:15:25;6.70;;;4.20;;
75820;SDS011;64454;51.984;9.838;2022-11-15T07:17:52;5.88;;;3.67;;
75820;SDS011;64454;51.984;9.838;2022-11-15T07:20:19;6.63;;;3.50;;
75820;SDS011;64454;51.984;9.838;2022-11-15T07:22:46;4.32;;;3.60;;
75820;SDS011;64454;51.984;9.838;2022-11-15T07:25:14;4.65;;;3.55;;
75820;SDS011;64454;51.984;9.838;2022-11-15T07:27:41;5.03;;;3.45;;
75820;SDS011;64454;51.984;9.838;2022-11-15T07:30:09;4.55;;;3.70;;
75820;SDS011;64454;51.984;9.838;2022-11-15T07:32:37;6.18;;;4.68;;
75820;SDS011;64454;51.984;9.838;2022-11-15T07:35:04;4.53;;;4.10;;
75820;SDS011;64454;51.984;9.838;2022-11-15T07:37:32;7.00;;;4.10;;
75820;SDS011;64454;51.984;9.838;2022-11-15T07:39:59;5.30;;;3.70;;
75820;SDS011;64454;51.984;9.838;2022-11-15T07:42:27;7.63;;;4.03;;
75820;SDS011;64454;51.984;9.838;2022-11-15T07:45:14;4.80;;;3.30;;
75820;SDS011;64454;51.984;9.838;2022-11-15T07:47:41;9.68;;;4.15;;
75820;SDS011;64454;51.984;9.838;2022-11-15T07:50:11;4.38;;;3.30;;
75820;SDS011;64454;51.984;9.838;2022-11-15T07:52:38;6.10;;;3.80;;
75820;SDS011;64454;51.984;9.838;2022-11-15T07:55:06;4.40;;;3.33;;
75820;SDS011;64454;51.984;9.838;2022-11-15T07:57:35;6.20;;;3.47;;
75820;SDS011;64454;51.984;9.838;2022-11-15T08:00:02;4.22;;;3.30;;
75820;SDS011;64454;51.984;9.838;2022-11-15T08:02:31;6.50;;;4.00;;
75820;SDS011;64454;51.984;9.838;2022-11-15T08:04:58;6.07;;;3.70;;
75820;SDS011;64454;51.984;9.838;2022-11-15T08:07:27;5.57;;;3.80;;
75820;SDS011;64454;51.984;9.838;2022-11-15T08:09:56;4.50;;;3.60;;
75820;SDS011;64454;51.984;9.838;2022-11-15T08:12:23;5.53;;;3.60;;
75820;SDS011;64454;51.984;9.838;2022-11-15T08:14:51;6.07;;;4.05;;
75820;SDS011;64454;51.984;9.838;2022-11-15T08:17:18;5.25;;;3.58;;
75820;SDS011;64454;51.984;9.838;2022-11-15T08:19:45;4.10;;;3.70;;
75820;SDS011;64454;51.984;9.838;2022-11-15T08:22:12;5.18;;;3.50;;
75820;SDS011;64454;51.984;9.838;2022-11-15T08:24:40;4.50;;;3.40;;
75820;SDS011;64454;51.984;9.838;2022-11-15T08:27:07;4.27;;;3.27;;
75820;SDS011;64454;51.984;9.838;2022-11-15T08:29:39;3.55;;;2.80;;
75820;SDS011;64454;51.984;9.838;2022-11-15T08:32:09;4.07;;;3.40;;
75820;SDS011;64454;51.984;9.838;2022-11-15T08:34:36;5.20;;;3.63;;
75820;SDS011;64454;51.984;9.838;2022-11-15T08:37:03;4.90;;;2.70;;
75820;SDS011;64454;51.984;9.838;2022-11-15T08:39:30;3.97;;;3.00;;
75820;SDS011;64454;51.984;9.838;2022-11-15T08:41:57;4.70;;;3.55;;
75820;SDS011;64454;51.984;9.838;2022-11-15T08:44:24;4.15;;;3.53;;
75820;SDS011;64454;51.984;9.838;2022-11-15T08:46:51;4.50;;;3.30;;
75820;SDS011;64454;51.984;9.838;2022-11-15T08:49:19;4.65;;;3.85;;
75820;SDS011;64454;51.984;9.838;2022-11-15T08:51:46;3.78;;;3.33;;
75820;SDS011;64454;51.984;9.838;2022-11-15T08:54:13;5.43;;;3.33;;
75820;SDS011;64454;51.984;9.838;2022-11-15T08:56:40;5.57;;;4.03;;
75820;SDS011;64454;51.984;9.838;2022-11-15T08:59:07;6.35;;;3.90;;
75820;SDS011;64454;51.984;9.838;2022-11-15T09:01:35;7.40;;;4.10;;
75820;SDS011;64454;51.984;9.838;2022-11-15T09:04:01;5.28;;;3.20;;
75820;SDS011;64454;51.984;9.838;2022-11-15T09:06:31;6.03;;;4.43;;
75820;SDS011;64454;51.984;9.838;2022-11-15T09:08:58;5.65;;;3.78;;
75820;SDS011;64454;51.984;9.838;2022-11-15T09:11:27;5.57;;;4.03;;
75820;SDS011;64454;51.984;9.838;2022-11-15T09:13:54;4.63;;;3.78;;
75820;SDS011;64454;51.984;9.838;2022-11-15T09:16:21;6.40;;;3.28;;
75820;SDS011;64454;51.984;9.838;2022-11-15T09:18:48;4.30;;;3.10;;
75820;SDS011;64454;51.984;9.838;2022-11-15T09:21:15;3.88;;;3.50;;
75820;SDS011;64454;51.984;9.838;2022-11-15T09:23:43;4.20;;;3.00;;
75820;SDS011;64454;51.984;9.838;2022-11-15T09:26:10;5.45;;;3.47;;
75820;SDS011;64454;51.984;9.838;2022-11-15T09:28:37;6.00;;;3.40;;
75820;SDS011;64454;51.984;9.838;2022-11-15T09:31:06;5.00;;;3.20;;
75820;SDS011;64454;51.984;9.838;2022-11-15T09:33:34;4.60;;;3.60;;
75820;SDS011;64454;51.984;9.838;2022-11-15T09:36:02;6.43;;;4.40;;
75820;SDS011;64454;51.984;9.838;2022-11-15T09:38:32;4.50;;;3.30;;
75820;SDS011;64454;51.984;9.838;2022-11-15T09:41:21;4.90;;;3.40;;
75820;SDS011;64454;51.984;9.838;2022-11-15T09:44:10;4.43;;;3.50;;
75820;SDS011;64454;51.984;9.838;2022-11-15T09:46:58;5.50;;;4.90;;
75820;SDS011;64454;51.984;9.838;2022-11-15T09:49:50;3.83;;;3.42;;
75820;SDS011;64454;51.984;9.838;2022-11-15T09:52:19;5.20;;;4.70;;
75820;SDS011;64454;51.984;9.838;2022-11-15T09:54:48;5.82;;;5.10;;
75820;SDS011;64454;51.984;9.838;2022-11-15T09:57:20;5.05;;;3.20;;
75820;SDS011;64454;51.984;9.838;2022-11-15T10:00:02;4.72;;;3.70;;
75820;SDS011;64454;51.984;9.838;2022-11-15T10:02:52;5.45;;;4.40;;
75820;SDS011;64454;51.984;9.838;2022-11-15T10:05:37;4.53;;;3.20;;
75820;SDS011;64454;51.984;9.838;2022-11-15T10:08:10;4.33;;;3.50;;
75820;SDS011;64454;51.984;9.838;2022-11-15T10:10:51;4.40;;;3.00;;
75820;SDS011;64454;51.984;9.838;2022-11-15T10:13:24;3.38;;;2.97;;
75820;SDS011;64454;51.984;9.838;2022-11-15T10:15:56;5.68;;;4.25;;
75820;SDS011;64454;51.984;9.838;2022-11-15T10:18:44;4.53;;;3.38;;
75820;SDS011;64454;51.984;9.838;2022-11-15T10:21:29;6.90;;;6.20;;
75820;SDS011;64454;51.984;9.838;2022-11-15T10:24:11;4.57;;;3.50;;
75820;SDS011;64454;51.984;9.838;2022-11-15T10:26:45;5.90;;;3.55;;
75820;SDS011;64454;51.984;9.838;2022-11-15T10:29:18;5.03;;;3.33;;
75820;SDS011;64454;51.984;9.838;2022-11-15T10:31:46;6.20;;;3.78;;
75820;SDS011;64454;51.984;9.838;2022-11-15T10:34:14;4.55;;;3.42;;
75820;SDS011;64454;51.984;9.838;2022-11-15T10:36:44;5.40;;;3.20;;
75820;SDS011;64454;51.984;9.838;2022-11-15T10:39:12;5.30;;;3.53;;
75820;SDS011;64454;51.984;9.838;2022-11-15T10:41:41;4.50;;;3.30;;
75820;SDS011;64454;51.984;9.838;2022-11-15T10:44:23;5.45;;;2.90;;
75820;SDS011;64454;51.984;9.838;2022-11-15T10:49:53;5.63;;;3.50;;
75820;SDS011;64454;51.984;9.838;2022-11-15T10:52:27;7.30;;;3.30;;
75820;SDS011;64454;51.984;9.838;2022-11-15T10:54:57;5.90;;;3.40;;
75820;SDS011;64454;51.984;9.838;2022-11-15T10:57:30;6.07;;;3.40;;
75820;SDS011;64454;51.984;9.838;2022-11-15T11:00:05;4.90;;;3.20;;
75820;SDS011;64454;51.984;9.838;2022-11-15T11:02:56;5.80;;;3.10;;
75820;SDS011;64454;51.984;9.838;2022-11-15T11:05:27;6.67;;;2.63;;
75820;SDS011;64454;51.984;9.838;2022-11-15T11:07:59;5.30;;;3.20;;
75820;SDS011;64454;51.984;9.838;2022-11-15T11:10:28;4.95;;;3.60;;
75820;SDS011;64454;51.984;9.838;2022-11-15T11:13:04;5.60;;;3.20;;
75820;SDS011;64454;51.984;9.838;2022-11-15T11:15:41;4.15;;;3.17;;
75820;SDS011;64454;51.984;9.838;2022-11-15T11:18:18;3.90;;;2.80;;
75820;SDS011;64454;51.984;9.838;2022-11-15T11:20:57;4.95;;;3.25;;
75820;SDS011;64454;51.984;9.838;2022-11-15T11:23:35;4.20;;;3.40;;
75820;SDS011;64454;51.984;9.838;2022-11-15T11:26:20;4.00;;;3.10;;
75820;SDS011;64454;51.984;9.838;2022-11-15T11:29:10;5.28;;;3.28;;
75820;SDS011;64454;51.984;9.838;2022-11-15T11:31:52;3.90;;;3.22;;
75820;SDS011;64454;51.984;9.838;2022-11-15T11:34:41;6.17;;;3.50;;
75820;SDS011;64454;51.984;9.838;2022-11-15T11:37:25;4.03;;;3.17;;
75820;SDS011;64454;51.984;9.838;2022-11-15T11:40:07;3.40;;;3.10;;
75820;SDS011;64454;51.984;9.838;2022-11-15T11:42:52;5.03;;;3.00;;
75820;SDS011;64454;51.984;9.838;2022-11-15T11:45:37;5.05;;;3.20;;
75820;SDS011;64454;51.984;9.838;2022-11-15T11:48:30;5.28;;;3.20;;
75820;SDS011;64454;51.984;9.838;2022-11-15T11:51:10;4.70;;;3.00;;
75820;SDS011;64454;51.984;9.838;2022-11-15T11:53:46;5.50;;;3.38;;
75820;SDS011;64454;51.984;9.838;2022-11-15T11:56:22;6.30;;;3.30;;
75820;SDS011;64454;51.984;9.838;2022-11-15T11:58:55;4.32;;;3.70;;
75820;SDS011;64454;51.984;9.838;2022-11-15T12:01:32;4.88;;;3.42;;
75820;SDS011;64454;51.984;9.838;2022-11-15T12:04:09;5.83;;;3.30;;
75820;SDS011;64454;51.984;9.838;2022-11-15T12:06:44;4.10;;;3.40;;
75820;SDS011;64454;51.984;9.838;2022-11-15T12:09:17;3.88;;;3.03;;
75820;SDS011;64454;51.984;9.838;2022-11-15T12:11:55;4.30;;;3.20;;
75820;SDS011;64454;51.984;9.838;2022-11-15T12:14:36;7.28;;;3.55;;
75820;SDS011;64454;51.984;9.838;2022-11-15T12:17:10;3.58;;;2.95;;
75820;SDS011;64454;51.984;9.838;2022-11-15T12:19:40;16.85;;;4.80;;
75820;SDS011;64454;51.984;9.838;2022-11-15T12:22:10;7.53;;;5.05;;
75820;SDS011;64454;51.984;9.838;2022-11-15T12:24:46;5.38;;;3.95;;
75820;SDS011;64454;51.984;9.838;2022-11-15T12:27:22;11.80;;;8.32;;
75820;SDS011;64454;51.984;9.838;2022-11-15T12:30:00;6.00;;;3.90;;
75820;SDS011;64454;51.984;9.838;2022-11-15T12:32:36;6.50;;;3.20;;
75820;SDS011;64454;51.984;9.838;2022-11-15T12:35:20;4.70;;;3.97;;
75820;SDS011;64454;51.984;9.838;2022-11-15T12:37:53;4.70;;;4.07;;
75820;SDS011;64454;51.984;9.838;2022-11-15T12:40:25;6.60;;;3.53;;
75820;SDS011;64454;51.984;9.838;2022-11-15T12:46:11;4.60;;;3.10;;
75820;SDS011;64454;51.984;9.838;2022-11-15T12:48:50;4.47;;;3.35;;
75820;SDS011;64454;51.984;9.838;2022-11-15T12:51:23;5.03;;;3.80;;
75820;SDS011;64454;51.984;9.838;2022-11-15T12:57:36;5.33;;;3.33;;
75820;SDS011;64454;51.984;9.838;2022-11-15T13:03:23;4.63;;;3.83;;
75820;SDS011;64454;51.984;9.838;2022-11-15T13:05:57;3.88;;;2.90;;
75820;SDS011;64454;51.984;9.838;2022-11-15T13:08:39;3.97;;;3.10;;
75820;SDS011;64454;51.984;9.838;2022-11-15T13:20:00;3.87;;;2.93;;
75820;SDS011;64454;51.984;9.838;2022-11-15T13:22:43;4.93;;;3.28;;
75820;SDS011;64454;51.984;9.838;2022-11-15T13:25:31;3.80;;;3.20;;
75820;SDS011;64454;51.984;9.838;2022-11-15T13:28:39;4.82;;;3.30;;
75820;SDS011;64454;51.984;9.838;2022-11-15T13:31:18;4.38;;;3.08;;
75820;SDS011;64454;51.984;9.838;2022-11-15T13:33:51;4.60;;;3.20;;
75820;SDS011;64454;51.984;9.838;2022-11-15T13:36:20;5.07;;;3.35;;
75820;SDS011;64454;51.984;9.838;2022-11-15T13:38:54;4.53;;;3.20;;
75820;SDS011;64454;51.984;9.838;2022-11-15T13:41:26;5.10;;;3.00;;
75820;SDS011;64454;51.984;9.838;2022-11-15T13:43:56;3.38;;;3.05;;
75820;SDS011;64454;51.984;9.838;2022-11-15T13:46:25;5.25;;;3.60;;
75820;SDS011;64454;51.984;9.838;2022-11-15T13:48:54;4.28;;;3.10;;
75820;SDS011;64454;51.984;9.838;2022-11-15T13:51:36;6.63;;;3.40;;
75820;SDS011;64454;51.984;9.838;2022-11-15T13:54:12;5.47;;;3.13;;
75820;SDS011;64454;51.984;9.838;2022-11-15T13:56:48;4.10;;;2.60;;
75820;SDS011;64454;51.984;9.838;2022-11-15T13:59:23;4.80;;;3.20;;
75820;SDS011;64454;51.984;9.838;2022-11-15T14:01:53;5.88;;;3.20;;
75820;SDS011;64454;51.984;9.838;2022-11-15T14:04:22;6.28;;;3.30;;
75820;SDS011;64454;51.984;9.838;2022-11-15T14:06:55;4.90;;;3.40;;
75820;SDS011;64454;51.984;9.838;2022-11-15T14:09:29;4.30;;;3.07;;
75820;SDS011;64454;51.984;9.838;2022-11-15T14:12:02;4.90;;;3.00;;
75820;SDS011;64454;51.984;9.838;2022-11-15T14:14:52;3.97;;;3.00;;
75820;SDS011;64454;51.984;9.838;2022-11-15T14:17:21;4.35;;;3.03;;
75820;SDS011;64454;51.984;9.838;2022-11-15T14:20:26;4.35;;;2.95;;
75820;SDS011;64454;51.984;9.838;2022-11-15T14:22:58;4.32;;;2.97;;
75820;SDS011;64454;51.984;9.838;2022-11-15T14:25:27;3.13;;;2.60;;
75820;SDS011;64454;51.984;9.838;2022-11-15T14:28:14;4.68;;;3.28;;
75820;SDS011;64454;51.984;9.838;2022-11-15T14:30:56;4.85;;;3.40;;
75820;SDS011;64454;51.984;9.838;2022-11-15T14:33:25;4.55;;;3.50;;
75820;SDS011;64454;51.984;9.838;2022-11-15T14:35:57;8.30;;;5.35;;
75820;SDS011;64454;51.984;9.838;2022-11-15T14:38:30;6.68;;;3.60;;
75820;SDS011;64454;51.984;9.838;2022-11-15T14:40:57;9.70;;;5.00;;
75820;SDS011;64454;51.984;9.838;2022-11-15T14:43:25;14.57;;;6.07;;
75820;SDS011;64454;51.984;9.838;2022-11-15T14:45:52;8.43;;;4.45;;
75820;SDS011;64454;51.984;9.838;2022-11-15T14:48:19;9.15;;;6.95;;
75820;SDS011;64454;51.984;9.838;2022-11-15T14:50:47;11.68;;;6.75;;
75820;SDS011;64454;51.984;9.838;2022-11-15T14:53:15;13.82;;;7.30;;
75820;SDS011;64454;51.984;9.838;2022-11-15T14:55:43;5.90;;;4.53;;
75820;SDS011;64454;51.984;9.838;2022-11-15T14:58:11;9.90;;;6.05;;
75820;SDS011;64454;51.984;9.838;2022-11-15T15:00:39;9.90;;;7.15;;
75820;SDS011;64454;51.984;9.838;2022-11-15T15:03:08;10.90;;;7.00;;
75820;SDS011;64454;51.984;9.838;2022-11-15T15:05:37;14.63;;;10.00;;
75820;SDS011;64454;51.984;9.838;2022-11-15T15:08:05;14.32;;;11.20;;
75820;SDS011;64454;51.984;9.838;2022-11-15T15:10:34;7.30;;;6.60;;
75820;SDS011;64454;51.984;9.838;2022-11-15T15:13:04;8.02;;;6.07;;
75820;SDS011;64454;51.984;9.838;2022-11-15T15:15:33;8.93;;;8.07;;
75820;SDS011;64454;51.984;9.838;2022-11-15T15:18:03;5.30;;;4.07;;
75820;SDS011;64454;51.984;9.838;2022-11-15T15:20:33;4.78;;;3.80;;
75820;SDS011;64454;51.984;9.838;2022-11-15T15:23:02;5.25;;;3.80;;
75820;SDS011;64454;51.984;9.838;2022-11-15T15:25:30;6.25;;;4.30;;
75820;SDS011;64454;51.984;9.838;2022-11-15T15:28:00;5.63;;;3.97;;
75820;SDS011;64454;51.984;9.838;2022-11-15T15:30:28;4.90;;;4.20;;
75820;SDS011;64454;51.984;9.838;2022-11-15T15:32:56;5.00;;;4.20;;
75820;SDS011;64454;51.984;9.838;2022-11-15T15:35:25;5.00;;;3.50;;
75820;SDS011;64454;51.984;9.838;2022-11-15T15:37:57;12.35;;;4.05;;
75820;SDS011;64454;51.984;9.838;2022-11-15T15:40:25;5.97;;;3.10;;
75820;SDS011;64454;51.984;9.838;2022-11-15T15:42:55;5.63;;;3.60;;